CCA1211 ZSAM-ZUCK
Flight info
| Callsign | CCA1211 |
|---|---|
| Flight time | 2h 18m |
| Altitude | 40100 |
| Route | NUSPA9Z NUSPA W598 DABER W155 VETIB DCT NUVGA DCT XEBUL DCT MABAG DCT WYN G586 QP B330 ELKAL W179 SUMUN W3 AGTIS/K0900S1250 W3 ASIPO/K0904S1220 W678 SEGDA SEGDA7L |
| Aircraft | A359/H-SDE2E3GHIJ3J4J5LM1ORWXY/LB1D1 |
Departure
| Time | 2026-04-24 04:13 |
|---|---|
| Airport | Xiamen Gaoqi International Airport (ZSAM) |
Arrival
| Time | 2026-04-24 06:31 |
|---|---|
| Airport | Chongqing Jiangbei International Airport (ZUCK) |
| Time | Latitude | Longitude | Altitude | Speed | Heading |
|---|---|---|---|---|---|
| 2026-04-24 03:46 | 24.53837 | 118.12626 | 64 ft | 0 kts | 143° |
| 2026-04-24 04:02 | 24.53839 | 118.12624 | 56 ft | 3 kts | 143° |
| 2026-04-24 04:02 | 24.53853 | 118.12612 | 55 ft | 3 kts | 148° |
| 2026-04-24 04:02 | 24.53871 | 118.12603 | 55 ft | 3 kts | 167° |
| 2026-04-24 04:03 | 24.53890 | 118.12601 | 55 ft | 3 kts | 194° |
| 2026-04-24 04:03 | 24.53908 | 118.12609 | 55 ft | 3 kts | 218° |
| 2026-04-24 04:03 | 24.53923 | 118.12624 | 54 ft | 3 kts | 232° |
| 2026-04-24 04:03 | 24.53933 | 118.12639 | 54 ft | 0 kts | 233° |
| 2026-04-24 04:07 | 24.53932 | 118.12637 | 63 ft | 1 kts | 233° |
| 2026-04-24 04:07 | 24.53912 | 118.12610 | 55 ft | 9 kts | 232° |
| 2026-04-24 04:07 | 24.53859 | 118.12534 | 55 ft | 17 kts | 232° |
| 2026-04-24 04:08 | 24.53775 | 118.12416 | 59 ft | 20 kts | 232° |
| 2026-04-24 04:08 | 24.53699 | 118.12306 | 57 ft | 15 kts | 246° |
| 2026-04-24 04:08 | 24.53750 | 118.12215 | 57 ft | 16 kts | 326° |
| 2026-04-24 04:08 | 24.53766 | 118.12150 | 59 ft | 6 kts | 228° |
| 2026-04-24 04:09 | 24.53723 | 118.12091 | 57 ft | 14 kts | 231° |
| 2026-04-24 04:09 | 24.53645 | 118.11982 | 58 ft | 22 kts | 232° |
| 2026-04-24 04:09 | 24.53537 | 118.11831 | 59 ft | 28 kts | 232° |
| 2026-04-24 04:09 | 24.53447 | 118.11706 | 60 ft | 16 kts | 232° |
| 2026-04-24 04:10 | 24.53400 | 118.11578 | 71 ft | 19 kts | 277° |
| 2026-04-24 04:10 | 24.53463 | 118.11478 | 61 ft | 10 kts | 350° |
| 2026-04-24 04:10 | 24.53520 | 118.11517 | 62 ft | 8 kts | 53° |
| 2026-04-24 04:11 | 24.53529 | 118.11531 | 61 ft | 0 kts | 53° |
| 2026-04-24 04:12 | 24.53530 | 118.11531 | 61 ft | 1 kts | 53° |
| 2026-04-24 04:12 | 24.53654 | 118.11707 | 59 ft | 67 kts | 52° |
| 2026-04-24 04:13 | 24.54095 | 118.12323 | 55 ft | 133 kts | 51° |
| 2026-04-24 04:13 | 24.54725 | 118.13203 | 483 ft | 149 kts | 52° |
| 2026-04-24 04:13 | 24.55351 | 118.14083 | 1236 ft | 147 kts | 52° |
| 2026-04-24 04:13 | 24.55988 | 118.15009 | 1821 ft | 161 kts | 56° |
| 2026-04-24 04:14 | 24.56482 | 118.16204 | 2196 ft | 184 kts | 73° |
| 2026-04-24 04:14 | 24.56582 | 118.17654 | 2767 ft | 197 kts | 94° |
| 2026-04-24 04:14 | 24.56197 | 118.19127 | 3449 ft | 205 kts | 115° |
| 2026-04-24 04:14 | 24.55328 | 118.20391 | 4102 ft | 211 kts | 137° |
| 2026-04-24 04:15 | 24.54073 | 118.21223 | 4802 ft | 213 kts | 160° |
| 2026-04-24 04:15 | 24.52623 | 118.21487 | 5495 ft | 213 kts | 184° |
| 2026-04-24 04:15 | 24.51221 | 118.21057 | 6235 ft | 208 kts | 214° |
| 2026-04-24 04:15 | 24.50231 | 118.19968 | 7023 ft | 202 kts | 238° |
| 2026-04-24 04:16 | 24.49689 | 118.19117 | 7350 ft | 212 kts | 236° |
| 2026-04-24 04:16 | 24.48463 | 118.17301 | 8072 ft | 230 kts | 235° |
| 2026-04-24 04:16 | 24.47448 | 118.15845 | 8539 ft | 250 kts | 234° |
| 2026-04-24 04:16 | 24.46352 | 118.14290 | 9196 ft | 261 kts | 234° |
| 2026-04-24 04:17 | 24.45611 | 118.13242 | 9709 ft | 265 kts | 234° |
| 2026-04-24 04:17 | 24.44458 | 118.11616 | 10452 ft | 273 kts | 234° |
| 2026-04-24 04:17 | 24.43263 | 118.09930 | 10956 ft | 290 kts | 234° |
| 2026-04-24 04:17 | 24.41982 | 118.08121 | 11327 ft | 310 kts | 234° |
| 2026-04-24 04:18 | 24.40615 | 118.06196 | 11686 ft | 329 kts | 234° |
| 2026-04-24 04:18 | 24.39172 | 118.04167 | 12062 ft | 345 kts | 234° |
| 2026-04-24 04:18 | 24.37677 | 118.02066 | 12653 ft | 352 kts | 234° |
| 2026-04-24 04:18 | 24.36163 | 117.99944 | 13400 ft | 355 kts | 234° |
| 2026-04-24 04:19 | 24.34633 | 117.97796 | 14053 ft | 359 kts | 234° |
| 2026-04-24 04:19 | 24.33096 | 117.95646 | 14680 ft | 362 kts | 234° |
| 2026-04-24 04:19 | 24.31539 | 117.93462 | 15389 ft | 364 kts | 234° |
| 2026-04-24 04:19 | 24.29970 | 117.91262 | 16048 ft | 365 kts | 234° |
| 2026-04-24 04:20 | 24.28398 | 117.89057 | 16678 ft | 368 kts | 234° |
| 2026-04-24 04:20 | 24.26823 | 117.86848 | 17311 ft | 370 kts | 234° |
| 2026-04-24 04:20 | 24.25220 | 117.84623 | 17935 ft | 373 kts | 233° |
| 2026-04-24 04:20 | 24.23442 | 117.82523 | 18536 ft | 378 kts | 228° |
| 2026-04-24 04:21 | 24.21565 | 117.80500 | 19153 ft | 379 kts | 228° |
| 2026-04-24 04:21 | 24.19687 | 117.78493 | 19799 ft | 378 kts | 228° |
| 2026-04-24 04:21 | 24.17815 | 117.76482 | 20426 ft | 378 kts | 228° |
| 2026-04-24 04:21 | 24.15939 | 117.74468 | 21064 ft | 378 kts | 227° |
| 2026-04-24 04:22 | 24.14041 | 117.72437 | 21567 ft | 382 kts | 227° |
| 2026-04-24 04:22 | 24.12136 | 117.70397 | 22009 ft | 387 kts | 227° |
| 2026-04-24 04:22 | 24.10243 | 117.68287 | 22560 ft | 388 kts | 230° |
| 2026-04-24 04:22 | 24.08617 | 117.65951 | 23109 ft | 388 kts | 238° |
| 2026-04-24 04:23 | 24.07367 | 117.63317 | 23596 ft | 389 kts | 247° |
| 2026-04-24 04:23 | 24.06558 | 117.60485 | 24004 ft | 393 kts | 256° |
| 2026-04-24 04:23 | 24.06207 | 117.57511 | 24418 ft | 398 kts | 265° |
| 2026-04-24 04:23 | 24.06301 | 117.54496 | 24850 ft | 403 kts | 271° |
| 2026-04-24 04:24 | 24.06599 | 117.51411 | 25374 ft | 405 kts | 273° |
| 2026-04-24 04:24 | 24.06969 | 117.48356 | 25858 ft | 407 kts | 274° |
| 2026-04-24 04:24 | 24.07368 | 117.45280 | 26504 ft | 405 kts | 273° |
| 2026-04-24 04:24 | 24.07759 | 117.42256 | 27157 ft | 404 kts | 273° |
| 2026-04-24 04:25 | 24.08145 | 117.39187 | 27625 ft | 408 kts | 273° |
| 2026-04-24 04:25 | 24.08520 | 117.36100 | 28094 ft | 410 kts | 272° |
| 2026-04-24 04:25 | 24.08890 | 117.32982 | 28602 ft | 412 kts | 272° |
| 2026-04-24 04:25 | 24.09257 | 117.29849 | 29090 ft | 415 kts | 272° |
| 2026-04-24 04:26 | 24.09622 | 117.26713 | 29594 ft | 417 kts | 272° |
| 2026-04-24 04:26 | 24.09989 | 117.23554 | 30033 ft | 420 kts | 272° |
| 2026-04-24 04:26 | 24.10357 | 117.20367 | 30442 ft | 422 kts | 272° |
| 2026-04-24 04:26 | 24.10726 | 117.17176 | 30911 ft | 424 kts | 272° |
| 2026-04-24 04:27 | 24.11095 | 117.13986 | 31438 ft | 422 kts | 272° |
| 2026-04-24 04:27 | 24.11460 | 117.10836 | 31847 ft | 422 kts | 272° |
| 2026-04-24 04:27 | 24.11829 | 117.07639 | 32165 ft | 424 kts | 273° |
| 2026-04-24 04:27 | 24.12196 | 117.04435 | 32449 ft | 426 kts | 272° |
| 2026-04-24 04:28 | 24.12570 | 117.01173 | 32767 ft | 427 kts | 272° |
| 2026-04-24 04:28 | 24.12936 | 116.97994 | 33247 ft | 425 kts | 272° |
| 2026-04-24 04:28 | 24.13304 | 116.94802 | 33744 ft | 421 kts | 272° |
| 2026-04-24 04:28 | 24.13667 | 116.91628 | 34201 ft | 419 kts | 273° |
| 2026-04-24 04:29 | 24.14029 | 116.88463 | 34568 ft | 418 kts | 273° |
| 2026-04-24 04:29 | 24.14388 | 116.85309 | 34937 ft | 416 kts | 273° |
| 2026-04-24 04:29 | 24.14646 | 116.82178 | 35380 ft | 410 kts | 270° |
| 2026-04-24 04:29 | 24.14771 | 116.79074 | 35800 ft | 407 kts | 269° |
| 2026-04-24 04:30 | 24.14844 | 116.75990 | 36137 ft | 405 kts | 268° |
| 2026-04-24 04:30 | 24.14911 | 116.72906 | 36439 ft | 406 kts | 269° |
| 2026-04-24 04:30 | 24.14993 | 116.69820 | 36750 ft | 405 kts | 269° |
| 2026-04-24 04:30 | 24.15091 | 116.66754 | 37091 ft | 403 kts | 269° |
| 2026-04-24 04:31 | 24.15203 | 116.63684 | 37392 ft | 402 kts | 269° |
| 2026-04-24 04:31 | 24.15323 | 116.60628 | 37660 ft | 401 kts | 270° |
| 2026-04-24 04:31 | 24.15448 | 116.57584 | 37932 ft | 401 kts | 270° |
| 2026-04-24 04:31 | 24.15572 | 116.54524 | 38039 ft | 402 kts | 270° |
| 2026-04-24 04:32 | 24.15814 | 116.48449 | 38039 ft | 399 kts | 269° |
| 2026-04-24 04:32 | 24.16050 | 116.42380 | 38040 ft | 399 kts | 270° |
| 2026-04-24 04:33 | 24.16463 | 116.36324 | 38030 ft | 400 kts | 272° |
| 2026-04-24 04:33 | 24.16966 | 116.30275 | 38037 ft | 400 kts | 272° |
| 2026-04-24 04:34 | 24.17453 | 116.24208 | 38032 ft | 400 kts | 271° |
| 2026-04-24 04:34 | 24.17912 | 116.18143 | 38033 ft | 399 kts | 271° |
| 2026-04-24 04:35 | 24.18359 | 116.12087 | 38033 ft | 399 kts | 271° |
| 2026-04-24 04:35 | 24.18803 | 116.06038 | 38008 ft | 399 kts | 271° |
| 2026-04-24 04:36 | 24.19244 | 115.99968 | 38035 ft | 401 kts | 271° |
| 2026-04-24 04:36 | 24.19688 | 115.93863 | 38043 ft | 402 kts | 271° |
| 2026-04-24 04:37 | 24.20130 | 115.87764 | 38034 ft | 401 kts | 271° |
| 2026-04-24 04:37 | 24.20566 | 115.81684 | 38033 ft | 401 kts | 271° |
| 2026-04-24 04:38 | 24.21002 | 115.75597 | 38036 ft | 401 kts | 271° |
| 2026-04-24 04:38 | 24.21432 | 115.69545 | 38033 ft | 401 kts | 271° |
| 2026-04-24 04:39 | 24.21862 | 115.63458 | 38045 ft | 401 kts | 271° |
| 2026-04-24 04:39 | 24.22292 | 115.57335 | 38034 ft | 400 kts | 271° |
| 2026-04-24 04:40 | 24.22714 | 115.51307 | 38032 ft | 399 kts | 271° |
| 2026-04-24 04:40 | 24.23134 | 115.45243 | 38035 ft | 400 kts | 271° |
| 2026-04-24 04:41 | 24.23603 | 115.39172 | 38034 ft | 400 kts | 272° |
| 2026-04-24 04:41 | 24.24161 | 115.33109 | 38035 ft | 400 kts | 272° |
| 2026-04-24 04:42 | 24.24715 | 115.27050 | 38034 ft | 399 kts | 272° |
| 2026-04-24 04:42 | 24.25247 | 115.21023 | 38040 ft | 398 kts | 272° |
| 2026-04-24 04:43 | 24.25771 | 115.14988 | 38036 ft | 397 kts | 272° |
| 2026-04-24 04:43 | 24.26290 | 115.08964 | 38035 ft | 397 kts | 272° |
| 2026-04-24 04:44 | 24.26808 | 115.02941 | 38036 ft | 397 kts | 272° |
| 2026-04-24 04:44 | 24.27326 | 114.96897 | 38036 ft | 396 kts | 272° |
| 2026-04-24 04:45 | 24.27837 | 114.90907 | 38041 ft | 395 kts | 272° |
| 2026-04-24 04:45 | 24.28344 | 114.84917 | 38040 ft | 395 kts | 272° |
| 2026-04-24 04:46 | 24.28870 | 114.78930 | 38047 ft | 395 kts | 272° |
| 2026-04-24 04:46 | 24.29400 | 114.72932 | 38041 ft | 395 kts | 272° |
| 2026-04-24 04:47 | 24.29923 | 114.66941 | 38043 ft | 395 kts | 272° |
| 2026-04-24 04:47 | 24.30445 | 114.60971 | 38046 ft | 393 kts | 272° |
| 2026-04-24 04:48 | 24.30964 | 114.55001 | 38035 ft | 394 kts | 272° |
| 2026-04-24 04:48 | 24.31481 | 114.49023 | 38045 ft | 395 kts | 272° |
| 2026-04-24 04:49 | 24.32039 | 114.43033 | 38037 ft | 395 kts | 272° |
| 2026-04-24 04:49 | 24.32609 | 114.37034 | 38047 ft | 395 kts | 272° |
| 2026-04-24 04:50 | 24.33169 | 114.31058 | 38041 ft | 393 kts | 272° |
| 2026-04-24 04:50 | 24.33722 | 114.25091 | 38045 ft | 394 kts | 272° |
| 2026-04-24 04:51 | 24.34273 | 114.19123 | 38040 ft | 394 kts | 272° |
| 2026-04-24 04:51 | 24.34819 | 114.13187 | 38039 ft | 394 kts | 272° |
| 2026-04-24 04:52 | 24.35392 | 114.07203 | 38035 ft | 394 kts | 272° |
| 2026-04-24 04:52 | 24.36032 | 114.01242 | 38033 ft | 393 kts | 272° |
| 2026-04-24 04:53 | 24.36671 | 113.95299 | 38034 ft | 393 kts | 272° |
| 2026-04-24 04:53 | 24.37299 | 113.89335 | 38031 ft | 393 kts | 272° |
| 2026-04-24 04:54 | 24.37920 | 113.83378 | 38033 ft | 393 kts | 272° |
| 2026-04-24 04:54 | 24.38538 | 113.77399 | 38027 ft | 400 kts | 272° |
| 2026-04-24 04:55 | 24.39164 | 113.71296 | 38030 ft | 406 kts | 272° |
| 2026-04-24 04:55 | 24.39801 | 113.65122 | 38047 ft | 407 kts | 272° |
| 2026-04-24 04:56 | 24.40439 | 113.58953 | 38028 ft | 407 kts | 272° |
| 2026-04-24 04:56 | 24.41071 | 113.52770 | 38030 ft | 407 kts | 272° |
| 2026-04-24 04:57 | 24.41698 | 113.46608 | 38025 ft | 407 kts | 272° |
| 2026-04-24 04:57 | 24.42324 | 113.40421 | 38037 ft | 407 kts | 272° |
| 2026-04-24 04:58 | 24.42959 | 113.34271 | 38037 ft | 407 kts | 272° |
| 2026-04-24 04:58 | 24.43594 | 113.28098 | 38030 ft | 406 kts | 272° |
| 2026-04-24 04:59 | 24.44226 | 113.21982 | 38028 ft | 407 kts | 272° |
| 2026-04-24 04:59 | 24.44858 | 113.15824 | 38032 ft | 407 kts | 272° |
| 2026-04-24 05:00 | 24.45482 | 113.09662 | 38047 ft | 406 kts | 271° |
| 2026-04-24 05:00 | 24.46105 | 113.03514 | 38042 ft | 406 kts | 271° |
| 2026-04-24 05:01 | 24.46730 | 112.97358 | 38028 ft | 405 kts | 271° |
| 2026-04-24 05:01 | 24.47340 | 112.91201 | 38034 ft | 405 kts | 271° |
| 2026-04-24 05:02 | 24.47847 | 112.86061 | 38027 ft | 405 kts | 271° |
| 2026-04-24 05:02 | 24.48449 | 112.79956 | 38032 ft | 405 kts | 271° |
| 2026-04-24 05:03 | 24.49054 | 112.73801 | 38032 ft | 406 kts | 271° |
| 2026-04-24 05:03 | 24.49665 | 112.67638 | 38040 ft | 406 kts | 271° |
| 2026-04-24 05:04 | 24.50267 | 112.61484 | 38040 ft | 405 kts | 271° |
| 2026-04-24 05:04 | 24.50860 | 112.55338 | 38040 ft | 406 kts | 271° |
| 2026-04-24 05:05 | 24.51459 | 112.49180 | 38043 ft | 406 kts | 271° |
| 2026-04-24 05:05 | 24.52056 | 112.43015 | 38049 ft | 406 kts | 271° |
| 2026-04-24 05:06 | 24.52651 | 112.36847 | 38048 ft | 406 kts | 271° |
| 2026-04-24 05:06 | 24.53243 | 112.30681 | 37984 ft | 406 kts | 271° |
| 2026-04-24 05:07 | 24.53842 | 112.24504 | 38049 ft | 408 kts | 271° |
| 2026-04-24 05:07 | 24.54425 | 112.18307 | 38037 ft | 408 kts | 271° |
| 2026-04-24 05:08 | 24.55003 | 112.12108 | 38056 ft | 408 kts | 271° |
| 2026-04-24 05:08 | 24.55590 | 112.05912 | 38038 ft | 408 kts | 271° |
| 2026-04-24 05:09 | 24.56173 | 111.99706 | 38039 ft | 408 kts | 271° |
| 2026-04-24 05:09 | 24.56753 | 111.93500 | 38039 ft | 409 kts | 271° |
| 2026-04-24 05:10 | 24.57332 | 111.87288 | 38038 ft | 408 kts | 271° |
| 2026-04-24 05:10 | 24.57906 | 111.81091 | 38039 ft | 408 kts | 271° |
| 2026-04-24 05:11 | 24.58478 | 111.74890 | 38033 ft | 408 kts | 271° |
| 2026-04-24 05:11 | 24.59047 | 111.68690 | 38046 ft | 408 kts | 270° |
| 2026-04-24 05:12 | 24.59613 | 111.62487 | 38039 ft | 409 kts | 270° |
| 2026-04-24 05:12 | 24.60176 | 111.56273 | 38048 ft | 409 kts | 270° |
| 2026-04-24 05:13 | 24.61023 | 111.46936 | 38040 ft | 409 kts | 270° |
| 2026-04-24 05:14 | 24.61573 | 111.40720 | 38034 ft | 408 kts | 270° |
| 2026-04-24 05:14 | 24.62130 | 111.34515 | 38047 ft | 408 kts | 270° |
| 2026-04-24 05:15 | 24.62683 | 111.28345 | 38047 ft | 408 kts | 270° |
| 2026-04-24 05:15 | 24.63225 | 111.22133 | 38048 ft | 408 kts | 270° |
| 2026-04-24 05:16 | 24.63758 | 111.15929 | 38045 ft | 408 kts | 270° |
| 2026-04-24 05:16 | 24.64287 | 111.09719 | 38054 ft | 409 kts | 270° |
| 2026-04-24 05:17 | 24.64817 | 111.03503 | 38043 ft | 408 kts | 270° |
| 2026-04-24 05:17 | 24.65360 | 110.97293 | 38043 ft | 408 kts | 270° |
| 2026-04-24 05:18 | 24.65892 | 110.91076 | 38041 ft | 407 kts | 270° |
| 2026-04-24 05:18 | 24.66499 | 110.84876 | 38049 ft | 411 kts | 274° |
| 2026-04-24 05:19 | 24.68163 | 110.78781 | 38051 ft | 424 kts | 286° |
| 2026-04-24 05:19 | 24.71367 | 110.73212 | 38045 ft | 443 kts | 300° |
| 2026-04-24 05:20 | 24.75750 | 110.68323 | 38039 ft | 452 kts | 305° |
| 2026-04-24 05:20 | 24.80331 | 110.63573 | 38052 ft | 450 kts | 306° |
| 2026-04-24 05:21 | 24.84857 | 110.58875 | 38043 ft | 446 kts | 305° |
| 2026-04-24 05:21 | 24.89345 | 110.54160 | 38044 ft | 445 kts | 305° |
| 2026-04-24 05:22 | 24.93818 | 110.49432 | 38049 ft | 445 kts | 305° |
| 2026-04-24 05:22 | 24.98284 | 110.44701 | 38052 ft | 445 kts | 305° |
| 2026-04-24 05:23 | 25.02749 | 110.39972 | 38051 ft | 445 kts | 305° |
| 2026-04-24 05:23 | 25.07211 | 110.35260 | 38049 ft | 445 kts | 305° |
| 2026-04-24 05:24 | 25.11681 | 110.30539 | 38047 ft | 445 kts | 305° |
| 2026-04-24 05:24 | 25.16150 | 110.25810 | 38046 ft | 447 kts | 304° |
| 2026-04-24 05:25 | 25.20651 | 110.21042 | 38044 ft | 448 kts | 304° |
| 2026-04-24 05:25 | 25.25174 | 110.16297 | 38049 ft | 449 kts | 304° |
| 2026-04-24 05:26 | 25.29711 | 110.11555 | 38047 ft | 449 kts | 305° |
| 2026-04-24 05:26 | 25.34232 | 110.06820 | 38053 ft | 449 kts | 305° |
| 2026-04-24 05:27 | 25.38761 | 110.02066 | 38054 ft | 449 kts | 305° |
| 2026-04-24 05:27 | 25.43287 | 109.97300 | 38057 ft | 450 kts | 304° |
| 2026-04-24 05:28 | 25.47822 | 109.92512 | 38097 ft | 450 kts | 306° |
| 2026-04-24 05:28 | 25.52349 | 109.87745 | 38065 ft | 447 kts | 306° |
| 2026-04-24 05:29 | 25.56882 | 109.82970 | 38058 ft | 452 kts | 306° |
| 2026-04-24 05:29 | 25.61439 | 109.78175 | 38053 ft | 452 kts | 307° |
| 2026-04-24 05:30 | 25.66004 | 109.73373 | 38060 ft | 453 kts | 307° |
| 2026-04-24 05:30 | 25.70566 | 109.68562 | 38062 ft | 453 kts | 307° |
| 2026-04-24 05:31 | 25.74989 | 109.63634 | 38060 ft | 445 kts | 301° |
| 2026-04-24 05:31 | 25.78235 | 109.57977 | 38057 ft | 428 kts | 287° |
| 2026-04-24 05:32 | 25.80172 | 109.51801 | 38066 ft | 422 kts | 281° |
| 2026-04-24 05:32 | 25.81807 | 109.45561 | 38092 ft | 421 kts | 281° |
| 2026-04-24 05:33 | 25.83414 | 109.39284 | 38065 ft | 425 kts | 282° |
| 2026-04-24 05:33 | 25.85056 | 109.32950 | 38080 ft | 429 kts | 282° |
| 2026-04-24 05:34 | 25.87567 | 109.23366 | 38080 ft | 432 kts | 282° |
| 2026-04-24 05:34 | 25.89244 | 109.16958 | 38078 ft | 432 kts | 282° |
| 2026-04-24 05:35 | 25.90913 | 109.10562 | 38097 ft | 432 kts | 283° |
| 2026-04-24 05:35 | 25.92579 | 109.04168 | 38088 ft | 432 kts | 283° |
| 2026-04-24 05:36 | 25.94275 | 108.97775 | 38099 ft | 433 kts | 283° |
| 2026-04-24 05:36 | 25.95986 | 108.91358 | 38102 ft | 433 kts | 283° |
| 2026-04-24 05:37 | 25.97696 | 108.84935 | 38096 ft | 434 kts | 283° |
| 2026-04-24 05:37 | 25.99392 | 108.78518 | 38105 ft | 433 kts | 283° |
| 2026-04-24 05:38 | 26.01082 | 108.72114 | 38102 ft | 433 kts | 284° |
| 2026-04-24 05:38 | 26.02791 | 108.65693 | 38108 ft | 433 kts | 284° |
| 2026-04-24 05:39 | 26.04491 | 108.59299 | 38113 ft | 433 kts | 284° |
| 2026-04-24 05:39 | 26.06195 | 108.52876 | 38111 ft | 433 kts | 284° |
| 2026-04-24 05:40 | 26.07891 | 108.46468 | 38113 ft | 433 kts | 284° |
| 2026-04-24 05:40 | 26.09667 | 108.40119 | 38107 ft | 434 kts | 288° |
| 2026-04-24 05:41 | 26.12143 | 108.33971 | 38126 ft | 435 kts | 292° |
| 2026-04-24 05:41 | 26.14755 | 108.27907 | 38126 ft | 436 kts | 292° |
| 2026-04-24 05:42 | 26.17406 | 108.21839 | 38131 ft | 437 kts | 292° |
| 2026-04-24 05:42 | 26.20046 | 108.15749 | 38126 ft | 437 kts | 292° |
| 2026-04-24 05:43 | 26.22675 | 108.09661 | 38113 ft | 436 kts | 292° |
| 2026-04-24 05:43 | 26.25292 | 108.03589 | 38131 ft | 435 kts | 292° |
| 2026-04-24 05:44 | 26.27903 | 107.97508 | 38131 ft | 435 kts | 292° |
| 2026-04-24 05:44 | 26.30518 | 107.91418 | 38131 ft | 436 kts | 292° |
| 2026-04-24 05:45 | 26.33132 | 107.85321 | 38143 ft | 436 kts | 292° |
| 2026-04-24 05:45 | 26.35301 | 107.80249 | 38136 ft | 436 kts | 292° |
| 2026-04-24 05:46 | 26.38354 | 107.73114 | 38147 ft | 435 kts | 293° |
| 2026-04-24 05:46 | 26.40512 | 107.68062 | 38146 ft | 433 kts | 293° |
| 2026-04-24 05:47 | 26.43115 | 107.61959 | 38148 ft | 433 kts | 293° |
| 2026-04-24 05:47 | 26.45680 | 107.55933 | 38150 ft | 433 kts | 292° |
| 2026-04-24 05:48 | 26.48252 | 107.49880 | 38158 ft | 434 kts | 292° |
| 2026-04-24 05:48 | 26.50848 | 107.43761 | 38163 ft | 433 kts | 292° |
| 2026-04-24 05:49 | 26.53403 | 107.37724 | 38154 ft | 432 kts | 293° |
| 2026-04-24 05:49 | 26.55983 | 107.31626 | 38166 ft | 431 kts | 293° |
| 2026-04-24 05:50 | 26.58523 | 107.25618 | 38172 ft | 431 kts | 293° |
| 2026-04-24 05:50 | 26.61094 | 107.19530 | 38169 ft | 431 kts | 292° |
| 2026-04-24 05:51 | 26.63654 | 107.13462 | 38168 ft | 431 kts | 292° |
| 2026-04-24 05:51 | 26.66224 | 107.07406 | 38173 ft | 431 kts | 293° |
| 2026-04-24 05:52 | 26.68763 | 107.01440 | 38179 ft | 431 kts | 293° |
| 2026-04-24 05:52 | 26.71332 | 106.95390 | 38172 ft | 431 kts | 293° |
| 2026-04-24 05:53 | 26.73969 | 106.89368 | 38180 ft | 432 kts | 297° |
| 2026-04-24 05:53 | 26.77579 | 106.83964 | 38177 ft | 439 kts | 310° |
| 2026-04-24 05:54 | 26.82507 | 106.79791 | 38176 ft | 452 kts | 325° |
| 2026-04-24 05:54 | 26.88514 | 106.77363 | 38177 ft | 470 kts | 341° |
| 2026-04-24 05:55 | 26.91837 | 106.76935 | 38176 ft | 481 kts | 350° |
| 2026-04-24 05:55 | 26.95206 | 106.76955 | 38171 ft | 482 kts | 350° |
| 2026-04-24 05:55 | 27.01899 | 106.76722 | 38172 ft | 482 kts | 350° |
| 2026-04-24 05:56 | 27.08599 | 106.76455 | 38182 ft | 481 kts | 350° |
| 2026-04-24 05:56 | 27.15275 | 106.76133 | 38176 ft | 480 kts | 349° |
| 2026-04-24 05:57 | 27.21942 | 106.75787 | 38170 ft | 480 kts | 349° |
| 2026-04-24 05:57 | 27.28619 | 106.75435 | 38170 ft | 480 kts | 349° |
| 2026-04-24 05:58 | 27.35283 | 106.75086 | 38174 ft | 480 kts | 349° |
| 2026-04-24 05:58 | 27.41974 | 106.74860 | 38168 ft | 483 kts | 352° |
| 2026-04-24 05:59 | 27.48699 | 106.74918 | 38166 ft | 484 kts | 353° |
| 2026-04-24 05:59 | 27.52061 | 106.74961 | 38004 ft | 482 kts | 353° |
| 2026-04-24 05:59 | 27.55397 | 106.74994 | 37737 ft | 478 kts | 353° |
| 2026-04-24 06:00 | 27.58715 | 106.75016 | 37474 ft | 476 kts | 352° |
| 2026-04-24 06:00 | 27.62023 | 106.75025 | 37212 ft | 475 kts | 352° |
| 2026-04-24 06:00 | 27.65337 | 106.75027 | 36991 ft | 476 kts | 353° |
| 2026-04-24 06:00 | 27.68650 | 106.75027 | 36733 ft | 476 kts | 353° |
| 2026-04-24 06:01 | 27.71958 | 106.75027 | 36480 ft | 477 kts | 353° |
| 2026-04-24 06:01 | 27.75275 | 106.75027 | 36230 ft | 477 kts | 353° |
| 2026-04-24 06:01 | 27.78601 | 106.75027 | 35980 ft | 478 kts | 353° |
| 2026-04-24 06:01 | 27.81929 | 106.75028 | 35742 ft | 479 kts | 353° |
| 2026-04-24 06:02 | 27.85221 | 106.75030 | 35500 ft | 479 kts | 353° |
| 2026-04-24 06:02 | 27.88555 | 106.75034 | 35256 ft | 480 kts | 353° |
| 2026-04-24 06:02 | 27.91939 | 106.75038 | 35043 ft | 480 kts | 354° |
| 2026-04-24 06:02 | 27.95284 | 106.75038 | 34810 ft | 482 kts | 354° |
| 2026-04-24 06:03 | 27.98647 | 106.75038 | 34567 ft | 483 kts | 354° |
| 2026-04-24 06:03 | 28.02008 | 106.75039 | 34332 ft | 484 kts | 354° |
| 2026-04-24 06:03 | 28.05380 | 106.75042 | 34096 ft | 485 kts | 354° |
| 2026-04-24 06:03 | 28.08756 | 106.75045 | 33828 ft | 485 kts | 354° |
| 2026-04-24 06:04 | 28.12137 | 106.75049 | 33558 ft | 486 kts | 354° |
| 2026-04-24 06:04 | 28.15526 | 106.75052 | 33292 ft | 487 kts | 354° |
| 2026-04-24 06:04 | 28.18866 | 106.75057 | 33026 ft | 488 kts | 354° |
| 2026-04-24 06:04 | 28.22314 | 106.75067 | 32797 ft | 489 kts | 354° |
| 2026-04-24 06:05 | 28.25714 | 106.75075 | 32541 ft | 489 kts | 354° |
| 2026-04-24 06:05 | 28.29078 | 106.75080 | 32287 ft | 490 kts | 354° |
| 2026-04-24 06:05 | 28.32471 | 106.74916 | 32028 ft | 486 kts | 349° |
| 2026-04-24 06:05 | 28.35829 | 106.74479 | 31782 ft | 486 kts | 348° |
| 2026-04-24 06:06 | 28.39185 | 106.74003 | 31528 ft | 486 kts | 347° |
| 2026-04-24 06:06 | 28.42589 | 106.73511 | 31092 ft | 487 kts | 347° |
| 2026-04-24 06:06 | 28.45906 | 106.73027 | 30628 ft | 488 kts | 347° |
| 2026-04-24 06:06 | 28.49274 | 106.72532 | 30071 ft | 488 kts | 348° |
| 2026-04-24 06:07 | 28.52683 | 106.72030 | 29425 ft | 486 kts | 348° |
| 2026-04-24 06:07 | 28.56021 | 106.71536 | 28838 ft | 481 kts | 348° |
| 2026-04-24 06:07 | 28.59302 | 106.71050 | 28260 ft | 475 kts | 348° |
| 2026-04-24 06:07 | 28.62518 | 106.70579 | 27699 ft | 469 kts | 348° |
| 2026-04-24 06:08 | 28.65783 | 106.70096 | 27134 ft | 464 kts | 348° |
| 2026-04-24 06:08 | 28.68968 | 106.69623 | 26563 ft | 459 kts | 348° |
| 2026-04-24 06:08 | 28.72087 | 106.69284 | 26030 ft | 456 kts | 352° |
| 2026-04-24 06:08 | 28.75243 | 106.69213 | 25462 ft | 452 kts | 354° |
| 2026-04-24 06:09 | 28.78377 | 106.69208 | 24902 ft | 447 kts | 355° |
| 2026-04-24 06:09 | 28.81471 | 106.69208 | 24356 ft | 442 kts | 354° |
| 2026-04-24 06:09 | 28.84535 | 106.69208 | 23817 ft | 438 kts | 354° |
| 2026-04-24 06:09 | 28.87564 | 106.69207 | 23195 ft | 433 kts | 354° |
| 2026-04-24 06:10 | 28.90559 | 106.69203 | 22563 ft | 428 kts | 355° |
| 2026-04-24 06:10 | 28.93514 | 106.69085 | 21941 ft | 421 kts | 350° |
| 2026-04-24 06:10 | 28.96383 | 106.68559 | 21336 ft | 414 kts | 343° |
| 2026-04-24 06:11 | 29.01642 | 106.66161 | 20148 ft | 404 kts | 328° |
| 2026-04-24 06:11 | 29.03945 | 106.64365 | 19646 ft | 400 kts | 320° |
| 2026-04-24 06:11 | 29.05992 | 106.62223 | 19163 ft | 398 kts | 313° |
| 2026-04-24 06:11 | 29.07757 | 106.59802 | 18730 ft | 397 kts | 308° |
| 2026-04-24 06:12 | 29.09470 | 106.57333 | 18337 ft | 396 kts | 310° |
| 2026-04-24 06:12 | 29.11260 | 106.54941 | 17896 ft | 395 kts | 311° |
| 2026-04-24 06:12 | 29.13069 | 106.52586 | 17458 ft | 394 kts | 311° |
| 2026-04-24 06:12 | 29.14883 | 106.50239 | 17011 ft | 393 kts | 312° |
| 2026-04-24 06:13 | 29.16692 | 106.47903 | 16580 ft | 391 kts | 312° |
| 2026-04-24 06:13 | 29.18495 | 106.45579 | 16143 ft | 390 kts | 312° |
| 2026-04-24 06:13 | 29.20291 | 106.43265 | 15737 ft | 388 kts | 312° |
| 2026-04-24 06:13 | 29.22089 | 106.40963 | 15322 ft | 387 kts | 313° |
| 2026-04-24 06:14 | 29.24098 | 106.38926 | 14908 ft | 385 kts | 325° |
| 2026-04-24 06:14 | 29.26464 | 106.37508 | 14509 ft | 384 kts | 339° |
| 2026-04-24 06:14 | 29.29057 | 106.36830 | 14115 ft | 385 kts | 353° |
| 2026-04-24 06:14 | 29.31733 | 106.36928 | 13710 ft | 385 kts | 7° |
| 2026-04-24 06:15 | 29.34296 | 106.37801 | 13271 ft | 387 kts | 22° |
| 2026-04-24 06:15 | 29.36686 | 106.39232 | 12839 ft | 387 kts | 26° |
| 2026-04-24 06:15 | 29.39082 | 106.40636 | 12417 ft | 385 kts | 23° |
| 2026-04-24 06:15 | 29.41575 | 106.41723 | 12002 ft | 382 kts | 15° |
| 2026-04-24 06:16 | 29.44154 | 106.42403 | 11580 ft | 380 kts | 8° |
| 2026-04-24 06:16 | 29.46766 | 106.42846 | 11164 ft | 379 kts | 8° |
| 2026-04-24 06:16 | 29.49338 | 106.43480 | 10757 ft | 378 kts | 14° |
| 2026-04-24 06:16 | 29.51867 | 106.44309 | 10492 ft | 377 kts | 16° |
| 2026-04-24 06:17 | 29.54341 | 106.45156 | 10462 ft | 360 kts | 16° |
| 2026-04-24 06:17 | 29.56669 | 106.45956 | 10453 ft | 339 kts | 16° |
| 2026-04-24 06:17 | 29.58850 | 106.46706 | 10450 ft | 319 kts | 16° |
| 2026-04-24 06:17 | 29.60917 | 106.47419 | 10434 ft | 300 kts | 16° |
| 2026-04-24 06:18 | 29.62856 | 106.48086 | 10378 ft | 284 kts | 16° |
| 2026-04-24 06:18 | 29.64716 | 106.48725 | 10143 ft | 276 kts | 16° |
| 2026-04-24 06:18 | 29.66544 | 106.49353 | 9910 ft | 270 kts | 16° |
| 2026-04-24 06:18 | 29.68320 | 106.49964 | 9640 ft | 263 kts | 16° |
| 2026-04-24 06:19 | 29.70053 | 106.50560 | 9374 ft | 257 kts | 17° |
| 2026-04-24 06:19 | 29.71752 | 106.51144 | 9102 ft | 252 kts | 17° |
| 2026-04-24 06:19 | 29.73412 | 106.51713 | 8875 ft | 246 kts | 17° |
| 2026-04-24 06:19 | 29.75040 | 106.52265 | 8619 ft | 242 kts | 17° |
| 2026-04-24 06:20 | 29.76642 | 106.52805 | 8373 ft | 237 kts | 17° |
| 2026-04-24 06:20 | 29.78176 | 106.53316 | 8340 ft | 223 kts | 17° |
| 2026-04-24 06:20 | 29.79636 | 106.53802 | 8317 ft | 215 kts | 17° |
| 2026-04-24 06:20 | 29.81071 | 106.54280 | 8340 ft | 214 kts | 17° |
| 2026-04-24 06:21 | 29.82489 | 106.54749 | 8286 ft | 211 kts | 17° |
| 2026-04-24 06:21 | 29.83906 | 106.55215 | 8045 ft | 211 kts | 17° |
| 2026-04-24 06:21 | 29.85323 | 106.55668 | 7812 ft | 212 kts | 17° |
| 2026-04-24 06:21 | 29.86739 | 106.56122 | 7590 ft | 211 kts | 17° |
| 2026-04-24 06:22 | 29.88163 | 106.56576 | 7550 ft | 213 kts | 17° |
| 2026-04-24 06:22 | 29.89590 | 106.57034 | 7547 ft | 213 kts | 17° |
| 2026-04-24 06:22 | 29.91012 | 106.57490 | 7550 ft | 213 kts | 16° |
| 2026-04-24 06:22 | 29.92420 | 106.57950 | 7365 ft | 212 kts | 16° |
| 2026-04-24 06:23 | 29.93836 | 106.58420 | 7140 ft | 212 kts | 17° |
| 2026-04-24 06:23 | 29.95253 | 106.58882 | 6893 ft | 211 kts | 17° |
| 2026-04-24 06:23 | 29.96599 | 106.59504 | 6638 ft | 206 kts | 36° |
| 2026-04-24 06:23 | 29.97429 | 106.60773 | 6388 ft | 198 kts | 71° |
| 2026-04-24 06:24 | 29.97474 | 106.62315 | 6166 ft | 192 kts | 101° |
| 2026-04-24 06:24 | 29.97144 | 106.63815 | 5910 ft | 189 kts | 106° |
| 2026-04-24 06:24 | 29.96779 | 106.65240 | 5657 ft | 187 kts | 107° |
| 2026-04-24 06:24 | 29.96412 | 106.66665 | 5398 ft | 183 kts | 107° |
| 2026-04-24 06:25 | 29.96056 | 106.68062 | 5184 ft | 181 kts | 107° |
| 2026-04-24 06:25 | 29.95708 | 106.69446 | 5164 ft | 180 kts | 107° |
| 2026-04-24 06:25 | 29.95327 | 106.70822 | 5076 ft | 180 kts | 113° |
| 2026-04-24 06:25 | 29.94489 | 106.71833 | 4967 ft | 176 kts | 155° |
| 2026-04-24 06:26 | 29.93312 | 106.71996 | 4909 ft | 172 kts | 188° |
| 2026-04-24 06:26 | 29.92146 | 106.71693 | 4902 ft | 172 kts | 197° |
| 2026-04-24 06:26 | 29.91394 | 106.71400 | 4896 ft | 172 kts | 200° |
| 2026-04-24 06:26 | 29.90251 | 106.70952 | 4769 ft | 174 kts | 198° |
| 2026-04-24 06:27 | 29.89097 | 106.70543 | 4530 ft | 173 kts | 197° |
| 2026-04-24 06:27 | 29.87943 | 106.70143 | 4270 ft | 173 kts | 197° |
| 2026-04-24 06:27 | 29.86430 | 106.69613 | 3957 ft | 168 kts | 195° |
| 2026-04-24 06:27 | 29.85692 | 106.69355 | 3805 ft | 167 kts | 197° |
| 2026-04-24 06:28 | 29.84580 | 106.68966 | 3590 ft | 165 kts | 197° |
| 2026-04-24 06:28 | 29.83512 | 106.68595 | 3389 ft | 156 kts | 197° |
| 2026-04-24 06:28 | 29.82496 | 106.68242 | 3172 ft | 146 kts | 196° |
| 2026-04-24 06:28 | 29.81564 | 106.67916 | 3013 ft | 136 kts | 196° |
| 2026-04-24 06:29 | 29.80652 | 106.67599 | 2833 ft | 138 kts | 196° |
| 2026-04-24 06:29 | 29.79737 | 106.67282 | 2640 ft | 136 kts | 196° |
| 2026-04-24 06:29 | 29.78838 | 106.66969 | 2481 ft | 135 kts | 196° |
| 2026-04-24 06:29 | 29.77930 | 106.66656 | 2297 ft | 136 kts | 196° |
| 2026-04-24 06:30 | 29.77037 | 106.66344 | 2101 ft | 133 kts | 196° |
| 2026-04-24 06:30 | 29.76149 | 106.66035 | 1937 ft | 134 kts | 195° |
| 2026-04-24 06:30 | 29.75271 | 106.65731 | 1763 ft | 131 kts | 195° |
| 2026-04-24 06:30 | 29.74406 | 106.65431 | 1587 ft | 131 kts | 195° |
| 2026-04-24 06:31 | 29.73520 | 106.65123 | 1424 ft | 134 kts | 195° |
| 2026-04-24 06:31 | 29.72659 | 106.64821 | 1364 ft | 117 kts | 197° |
| 2026-04-24 06:31 | 29.72113 | 106.64633 | 1361 ft | 40 kts | 197° |
| 2026-04-24 06:31 | 29.71920 | 106.64593 | 1362 ft | 23 kts | 176° |
| 2026-04-24 06:32 | 29.71815 | 106.64607 | 1365 ft | 13 kts | 171° |
| 2026-04-24 06:32 | 29.71765 | 106.64616 | 1363 ft | 0 kts | 171° |
| 2026-04-24 06:35 | 29.71760 | 106.64617 | 1364 ft | 3 kts | 171° |
| 2026-04-24 06:35 | 29.71720 | 106.64626 | 1363 ft | 9 kts | 169° |
| 2026-04-24 06:35 | 29.71640 | 106.64639 | 1363 ft | 14 kts | 174° |
| 2026-04-24 06:36 | 29.71626 | 106.64641 | 1363 ft | 0 kts | 174° |
| 2026-04-24 06:36 | 29.71625 | 106.64642 | 1364 ft | 0 kts | 166° |
| 2026-04-24 06:36 | 29.71622 | 106.64645 | 1365 ft | 1 kts | 147° |
| 2026-04-24 06:36 | 29.71620 | 106.64652 | 1365 ft | 1 kts | 114° |
| 2026-04-24 06:37 | 29.71624 | 106.64666 | 1363 ft | 3 kts | 68° |
| 2026-04-24 06:37 | 29.71645 | 106.64675 | 1365 ft | 7 kts | 20° |
| 2026-04-24 06:37 | 29.71705 | 106.64698 | 1363 ft | 11 kts | 17° |
| 2026-04-24 06:37 | 29.71805 | 106.64733 | 1363 ft | 19 kts | 17° |
| 2026-04-24 06:38 | 29.71957 | 106.64786 | 1363 ft | 26 kts | 17° |
| 2026-04-24 06:38 | 29.72115 | 106.64840 | 1363 ft | 21 kts | 17° |
| 2026-04-24 06:38 | 29.72195 | 106.64896 | 1363 ft | 5 kts | 86° |
| 2026-04-24 06:38 | 29.72181 | 106.64962 | 1361 ft | 12 kts | 108° |
| 2026-04-24 06:39 | 29.72150 | 106.65078 | 1363 ft | 17 kts | 107° |
| 2026-04-24 06:39 | 29.72114 | 106.65215 | 1359 ft | 21 kts | 107° |
| 2026-04-24 06:39 | 29.72065 | 106.65315 | 1360 ft | 13 kts | 166° |
| 2026-04-24 06:39 | 29.71961 | 106.65304 | 1358 ft | 17 kts | 193° |
| 2026-04-24 06:40 | 29.71834 | 106.65259 | 1357 ft | 16 kts | 196° |
| 2026-04-24 06:40 | 29.71749 | 106.65235 | 1358 ft | 15 kts | 191° |
| 2026-04-24 06:40 | 29.71678 | 106.65228 | 1358 ft | 4 kts | 190° |
| 2026-04-24 06:40 | 29.71668 | 106.65217 | 1359 ft | 1 kts | 228° |
| 2026-04-24 06:41 | 29.71659 | 106.65195 | 1360 ft | 3 kts | 258° |
| 2026-04-24 06:41 | 29.71657 | 106.65169 | 1360 ft | 3 kts | 268° |
| 2026-04-24 06:41 | 29.71656 | 106.65151 | 1359 ft | 1 kts | 268° |
| 2026-04-24 06:42 | 29.71656 | 106.65146 | 1359 ft | 0 kts | 267° |
| 2026-04-24 06:42 | 29.71656 | 106.65145 | 1358 ft | 0 kts | 267° |